Cornwall, Vermont
Current Conditions -  °F | °C
As of 8:15 PM on Saturday 22 Nov 2014 (Local Time) from K6B0 Reporting Station
Overcast Overcast  
Wind Chill: 31°   Ceiling: 2700
Heat Index: 38°   Visibility: 10mi
Dew Point: 19°   Wind: 12mph
Humidity: 46%   Direction: 180°S
Pressure: 30"   Gusts: 20mph
Location:  43.9961°N, 73.1846°W
Report Text: K6B0 230115Z AUTO 18010G17KT 10SM OVC027 04/M07 A3000 RMK AO2 T00361072
Loading
Personal Weather Stations






























Interactive Weather Map New forecast layout! Learn more

10-Day Weather Forecast

Advertisements
Track Severe Weather on mobile